Thursday, October 23, 2014
03:54 UTC
  |  Log In   |  Register Free
Airport Search:

Lewis University Airport
(KLOT)

Lewis University Airport Diagram
No Airport Diagram Available

FAA data valid effective September 18, 2014 - November 13, 2014 (unless otherwise noted).

 
 
 
 
 
 
 
 
 
 
 
 
 
 

Current Aviation Weather for Lewis University Airport (KLOT)

The most recent METAR observation for KLOT was updated at: 0314
METAR Summary (Translated METAR)
KLOT
230255Z AUTO 10003KT 10SM CLR 05/02 A3027 RMK AO2 T00450016
KJOT
230255Z AUTO 00000KT 10SM CLR 04/02 A3027 RMK AO2 T00370018
(6.4 nm SW from KLOT)
KMDW
230253Z 00000KT 10SM CLR 09/03 A3028 RMK AO2 SLP256 T00940033 55000
(18.8 nm NE from KLOT)
TAF Summary (Translated TAF)
KMDW
(18.8 nm NE from KLOT)
230256Z 2303/2324 15004KT P6SM FEW250 FM231600 19010KT P6SM BKN250 FM232200 20008KT P6SM -SHRA SCT025 BKN040 OVC070
  Airport Weather Conditions for KLOT

 Current Weather at LOT
40° F
Fair
North winds at 0.0 mph
LOT NOAA Radar

Pressure: 30.27 in
Humidity: 81%
Wind: Calm
Dew Point: 34.7°F
Visibility: 10.00 mi


Airport Weather Forecast for KLOT

Translated METAR and TAF for KLOT
Translated METAR for KLOT (0349 UTC 23 October 2014)
found at http://aviationweather.gov/adds/metars/
 
METAR text: KLOT 230335Z AUTO 00000KT 10SM CLR 04/02 A3028 RMK AO2 T00420018
Conditions at: KLOT (ROMEOVILLE/CHI , IL, US) observed 0335 UTC 23 October 2014
Temperature: 4.2°C (40°F)
Dewpoint: 1.8°C (35°F) [RH = 84%]
Pressure (altimeter): 30.28 inches Hg (1025.5 mb)
Winds: calm
Visibility: 10 or more miles (16+ km)
Ceiling: at least 12,000 feet AGL
Clouds: sky clear below 12,000 feet AGL
Weather: automated observation with no human augmentation;
there may or may not be significant weather present at this time
Translated TAF for KLOT

There is no translated TAF available for this airport

Find All Airport Services Find A Hotel Find A Rental Car Find A Golf Course Find A Restaurant $100 Hamburger



FBO's on the Field
FBO Company Facility Photos Services Transportation Aviation Fuel Prices: Prices include tax
Catering Weather Repair Courtesy Rental Type 100LL JetA JetA+ MOGAS 8087
 
Lewis University Airport

This FBO has not yet been rated
FS: Phillips 66
Last Updated: Oct-10
Login to update fuel prices
SS:
Contact Lewis University AirportMore FBO Information
 
Add another FBO Facility Photos Catering Weather Repair Courtesy Rental Type 100LL JetA JetA+ MOGAS 8087
Services Transportation Aviation Fuel Prices: Prices include tax


model-print
model-print
model-print
model-print